sensor_id;sensor_type;location;lat;lon;timestamp;P1;durP1;ratioP1;P2;durP2;ratioP2
7783;SDS011;19359;51.402;6.778;2023-05-10T00:01:30;406.60;;;267.48;;
7783;SDS011;19359;51.402;6.778;2023-05-10T00:03:57;413.17;;;272.92;;
7783;SDS011;19359;51.402;6.778;2023-05-10T00:06:24;418.40;;;277.83;;
7783;SDS011;19359;51.402;6.778;2023-05-10T00:08:51;448.67;;;287.35;;
7783;SDS011;19359;51.402;6.778;2023-05-10T00:11:20;450.83;;;275.75;;
7783;SDS011;19359;51.402;6.778;2023-05-10T00:13:47;457.92;;;301.40;;
7783;SDS011;19359;51.402;6.778;2023-05-10T00:16:14;432.33;;;274.35;;
7783;SDS011;19359;51.402;6.778;2023-05-10T00:18:42;439.67;;;273.05;;
7783;SDS011;19359;51.402;6.778;2023-05-10T00:21:09;436.52;;;276.50;;
7783;SDS011;19359;51.402;6.778;2023-05-10T00:23:36;426.95;;;283.98;;
7783;SDS011;19359;51.402;6.778;2023-05-10T00:26:03;421.60;;;274.75;;
7783;SDS011;19359;51.402;6.778;2023-05-10T00:28:32;360.38;;;266.85;;
7783;SDS011;19359;51.402;6.778;2023-05-10T00:30:59;364.17;;;259.85;;
7783;SDS011;19359;51.402;6.778;2023-05-10T00:33:27;412.95;;;274.95;;
7783;SDS011;19359;51.402;6.778;2023-05-10T00:35:54;407.08;;;268.48;;
7783;SDS011;19359;51.402;6.778;2023-05-10T00:38:21;410.48;;;278.00;;
7783;SDS011;19359;51.402;6.778;2023-05-10T00:40:48;415.85;;;271.63;;
7783;SDS011;19359;51.402;6.778;2023-05-10T00:43:16;430.88;;;282.77;;
7783;SDS011;19359;51.402;6.778;2023-05-10T00:45:44;413.67;;;275.00;;
7783;SDS011;19359;51.402;6.778;2023-05-10T00:48:12;407.83;;;271.73;;
7783;SDS011;19359;51.402;6.778;2023-05-10T00:50:39;406.75;;;268.70;;
7783;SDS011;19359;51.402;6.778;2023-05-10T00:53:09;420.50;;;275.20;;
7783;SDS011;19359;51.402;6.778;2023-05-10T00:55:37;405.42;;;279.60;;
7783;SDS011;19359;51.402;6.778;2023-05-10T00:58:04;403.08;;;268.13;;
7783;SDS011;19359;51.402;6.778;2023-05-10T01:00:32;385.25;;;271.67;;
7783;SDS011;19359;51.402;6.778;2023-05-10T01:03:02;331.55;;;253.13;;
7783;SDS011;19359;51.402;6.778;2023-05-10T01:05:29;347.70;;;254.43;;
7783;SDS011;19359;51.402;6.778;2023-05-10T01:07:56;353.42;;;260.48;;
7783;SDS011;19359;51.402;6.778;2023-05-10T01:10:24;350.13;;;257.10;;
7783;SDS011;19359;51.402;6.778;2023-05-10T01:12:51;367.23;;;259.67;;
7783;SDS011;19359;51.402;6.778;2023-05-10T01:15:19;397.40;;;268.02;;
7783;SDS011;19359;51.402;6.778;2023-05-10T01:17:47;403.30;;;264.65;;
7783;SDS011;19359;51.402;6.778;2023-05-10T01:20:17;426.15;;;277.35;;
7783;SDS011;19359;51.402;6.778;2023-05-10T01:23:09;369.20;;;258.13;;
7783;SDS011;19359;51.402;6.778;2023-05-10T01:28:34;367.35;;;248.43;;
7783;SDS011;19359;51.402;6.778;2023-05-10T01:31:08;378.08;;;259.52;;
7783;SDS011;19359;51.402;6.778;2023-05-10T01:33:39;395.38;;;261.42;;
7783;SDS011;19359;51.402;6.778;2023-05-10T01:36:08;393.55;;;265.05;;
7783;SDS011;19359;51.402;6.778;2023-05-10T01:38:41;358.35;;;257.20;;
7783;SDS011;19359;51.402;6.778;2023-05-10T01:41:12;353.45;;;249.98;;
7783;SDS011;19359;51.402;6.778;2023-05-10T01:43:43;345.80;;;245.60;;
7783;SDS011;19359;51.402;6.778;2023-05-10T01:46:16;347.50;;;244.15;;
7783;SDS011;19359;51.402;6.778;2023-05-10T01:48:47;352.02;;;243.13;;
7783;SDS011;19359;51.402;6.778;2023-05-10T01:51:15;341.08;;;238.95;;
7783;SDS011;19359;51.402;6.778;2023-05-10T01:53:44;395.13;;;259.15;;
7783;SDS011;19359;51.402;6.778;2023-05-10T01:56:12;411.23;;;256.55;;
7783;SDS011;19359;51.402;6.778;2023-05-10T01:58:39;411.70;;;257.42;;
7783;SDS011;19359;51.402;6.778;2023-05-10T02:01:07;442.42;;;267.48;;
7783;SDS011;19359;51.402;6.778;2023-05-10T02:03:35;413.63;;;250.88;;
7783;SDS011;19359;51.402;6.778;2023-05-10T02:06:04;423.35;;;255.18;;
7783;SDS011;19359;51.402;6.778;2023-05-10T02:08:32;436.33;;;263.58;;
7783;SDS011;19359;51.402;6.778;2023-05-10T02:11:01;443.70;;;267.20;;
7783;SDS011;19359;51.402;6.778;2023-05-10T02:13:28;442.05;;;271.92;;
7783;SDS011;19359;51.402;6.778;2023-05-10T02:15:56;449.48;;;272.33;;
7783;SDS011;19359;51.402;6.778;2023-05-10T02:18:24;414.02;;;270.75;;
7783;SDS011;19359;51.402;6.778;2023-05-10T02:20:53;405.33;;;272.60;;
7783;SDS011;19359;51.402;6.778;2023-05-10T02:23:23;406.52;;;271.90;;
7783;SDS011;19359;51.402;6.778;2023-05-10T02:25:51;401.67;;;271.77;;
7783;SDS011;19359;51.402;6.778;2023-05-10T02:28:19;368.60;;;262.65;;
7783;SDS011;19359;51.402;6.778;2023-05-10T02:30:46;403.00;;;274.90;;
7783;SDS011;19359;51.402;6.778;2023-05-10T02:33:16;405.55;;;277.00;;
7783;SDS011;19359;51.402;6.778;2023-05-10T02:35:44;408.60;;;275.52;;
7783;SDS011;19359;51.402;6.778;2023-05-10T02:38:12;388.60;;;270.42;;
7783;SDS011;19359;51.402;6.778;2023-05-10T02:40:42;394.20;;;274.45;;
7783;SDS011;19359;51.402;6.778;2023-05-10T02:43:12;404.77;;;278.02;;
7783;SDS011;19359;51.402;6.778;2023-05-10T02:45:40;361.45;;;263.50;;
7783;SDS011;19359;51.402;6.778;2023-05-10T02:48:08;361.75;;;262.90;;
7783;SDS011;19359;51.402;6.778;2023-05-10T02:50:35;354.45;;;265.58;;
7783;SDS011;19359;51.402;6.778;2023-05-10T02:53:06;359.13;;;258.77;;
7783;SDS011;19359;51.402;6.778;2023-05-10T02:55:36;367.33;;;267.40;;
7783;SDS011;19359;51.402;6.778;2023-05-10T02:58:06;329.23;;;244.52;;
7783;SDS011;19359;51.402;6.778;2023-05-10T03:00:34;372.25;;;262.33;;
7783;SDS011;19359;51.402;6.778;2023-05-10T03:03:01;341.05;;;259.92;;
7783;SDS011;19359;51.402;6.778;2023-05-10T03:05:29;357.83;;;262.00;;
7783;SDS011;19359;51.402;6.778;2023-05-10T03:07:56;382.27;;;262.40;;
7783;SDS011;19359;51.402;6.778;2023-05-10T03:10:27;382.65;;;258.15;;
7783;SDS011;19359;51.402;6.778;2023-05-10T03:12:57;376.40;;;266.17;;
7783;SDS011;19359;51.402;6.778;2023-05-10T03:15:33;378.38;;;261.05;;
7783;SDS011;19359;51.402;6.778;2023-05-10T03:18:04;381.17;;;270.77;;
7783;SDS011;19359;51.402;6.778;2023-05-10T03:20:35;355.00;;;256.65;;
7783;SDS011;19359;51.402;6.778;2023-05-10T03:23:04;315.95;;;246.18;;
7783;SDS011;19359;51.402;6.778;2023-05-10T03:25:31;304.92;;;243.98;;
7783;SDS011;19359;51.402;6.778;2023-05-10T03:28:01;338.40;;;256.05;;
7783;SDS011;19359;51.402;6.778;2023-05-10T03:30:28;333.50;;;259.88;;
7783;SDS011;19359;51.402;6.778;2023-05-10T03:32:58;386.35;;;272.65;;
7783;SDS011;19359;51.402;6.778;2023-05-10T03:35:25;331.00;;;258.65;;
7783;SDS011;19359;51.402;6.778;2023-05-10T03:37:52;299.10;;;245.68;;
7783;SDS011;19359;51.402;6.778;2023-05-10T03:40:19;288.17;;;239.77;;
7783;SDS011;19359;51.402;6.778;2023-05-10T03:42:48;303.85;;;254.00;;
7783;SDS011;19359;51.402;6.778;2023-05-10T03:45:15;355.13;;;266.38;;
7783;SDS011;19359;51.402;6.778;2023-05-10T03:47:42;355.92;;;268.13;;
7783;SDS011;19359;51.402;6.778;2023-05-10T03:50:11;416.67;;;289.67;;
7783;SDS011;19359;51.402;6.778;2023-05-10T03:52:39;395.10;;;280.17;;
7783;SDS011;19359;51.402;6.778;2023-05-10T03:55:06;385.00;;;280.48;;
7783;SDS011;19359;51.402;6.778;2023-05-10T03:57:34;434.98;;;282.17;;
7783;SDS011;19359;51.402;6.778;2023-05-10T04:00:02;439.08;;;291.92;;
7783;SDS011;19359;51.402;6.778;2023-05-10T04:02:29;445.77;;;284.27;;
7783;SDS011;19359;51.402;6.778;2023-05-10T04:04:56;455.33;;;292.05;;
7783;SDS011;19359;51.402;6.778;2023-05-10T04:07:25;466.23;;;293.77;;
7783;SDS011;19359;51.402;6.778;2023-05-10T04:09:53;446.83;;;292.98;;
7783;SDS011;19359;51.402;6.778;2023-05-10T04:12:20;444.50;;;296.45;;
7783;SDS011;19359;51.402;6.778;2023-05-10T04:14:47;445.98;;;282.55;;
7783;SDS011;19359;51.402;6.778;2023-05-10T04:17:14;429.08;;;286.77;;
7783;SDS011;19359;51.402;6.778;2023-05-10T04:19:42;392.63;;;279.25;;
7783;SDS011;19359;51.402;6.778;2023-05-10T04:22:09;416.65;;;280.58;;
7783;SDS011;19359;51.402;6.778;2023-05-10T04:24:38;413.52;;;283.10;;
7783;SDS011;19359;51.402;6.778;2023-05-10T04:27:06;409.60;;;278.98;;
7783;SDS011;19359;51.402;6.778;2023-05-10T04:29:33;377.05;;;266.98;;
7783;SDS011;19359;51.402;6.778;2023-05-10T04:32:00;339.85;;;253.68;;
7783;SDS011;19359;51.402;6.778;2023-05-10T04:34:28;412.45;;;284.17;;
7783;SDS011;19359;51.402;6.778;2023-05-10T04:36:55;375.95;;;269.60;;
7783;SDS011;19359;51.402;6.778;2023-05-10T04:39:23;404.75;;;266.83;;
7783;SDS011;19359;51.402;6.778;2023-05-10T04:41:52;408.13;;;274.65;;
7783;SDS011;19359;51.402;6.778;2023-05-10T04:44:19;412.50;;;277.27;;
7783;SDS011;19359;51.402;6.778;2023-05-10T04:46:46;386.15;;;271.95;;
7783;SDS011;19359;51.402;6.778;2023-05-10T04:49:14;377.45;;;269.92;;
7783;SDS011;19359;51.402;6.778;2023-05-10T04:51:41;385.08;;;259.73;;
7783;SDS011;19359;51.402;6.778;2023-05-10T04:54:09;398.52;;;269.90;;
7783;SDS011;19359;51.402;6.778;2023-05-10T04:56:36;394.80;;;274.38;;
7783;SDS011;19359;51.402;6.778;2023-05-10T04:59:05;440.52;;;285.15;;
7783;SDS011;19359;51.402;6.778;2023-05-10T05:01:32;427.92;;;277.33;;
7783;SDS011;19359;51.402;6.778;2023-05-10T05:03:59;430.10;;;279.88;;
7783;SDS011;19359;51.402;6.778;2023-05-10T05:06:27;430.35;;;289.90;;
7783;SDS011;19359;51.402;6.778;2023-05-10T05:08:55;424.02;;;280.52;;
7783;SDS011;19359;51.402;6.778;2023-05-10T05:11:23;408.20;;;280.50;;
7783;SDS011;19359;51.402;6.778;2023-05-10T05:13:54;390.65;;;269.40;;
7783;SDS011;19359;51.402;6.778;2023-05-10T05:16:25;362.00;;;267.48;;
7783;SDS011;19359;51.402;6.778;2023-05-10T05:18:52;405.70;;;275.73;;
7783;SDS011;19359;51.402;6.778;2023-05-10T05:21:20;410.23;;;272.25;;
7783;SDS011;19359;51.402;6.778;2023-05-10T05:23:49;398.52;;;270.50;;
7783;SDS011;19359;51.402;6.778;2023-05-10T05:26:16;414.30;;;279.52;;
7783;SDS011;19359;51.402;6.778;2023-05-10T05:28:44;404.48;;;280.27;;
7783;SDS011;19359;51.402;6.778;2023-05-10T05:31:13;424.30;;;281.13;;
7783;SDS011;19359;51.402;6.778;2023-05-10T05:33:42;401.23;;;274.40;;
7783;SDS011;19359;51.402;6.778;2023-05-10T05:36:10;358.08;;;261.85;;
7783;SDS011;19359;51.402;6.778;2023-05-10T05:38:38;384.20;;;276.15;;
7783;SDS011;19359;51.402;6.778;2023-05-10T05:41:05;326.90;;;259.00;;
7783;SDS011;19359;51.402;6.778;2023-05-10T05:43:32;364.85;;;273.95;;
7783;SDS011;19359;51.402;6.778;2023-05-10T05:46:00;345.45;;;265.15;;
7783;SDS011;19359;51.402;6.778;2023-05-10T05:48:29;317.13;;;256.35;;
7783;SDS011;19359;51.402;6.778;2023-05-10T05:50:57;399.10;;;286.27;;
7783;SDS011;19359;51.402;6.778;2023-05-10T05:53:25;333.02;;;257.13;;
7783;SDS011;19359;51.402;6.778;2023-05-10T05:55:52;307.30;;;246.20;;
7783;SDS011;19359;51.402;6.778;2023-05-10T05:58:20;270.40;;;226.88;;
7783;SDS011;19359;51.402;6.778;2023-05-10T06:00:47;241.07;;;205.73;;
7783;SDS011;19359;51.402;6.778;2023-05-10T06:03:15;272.25;;;222.60;;
7783;SDS011;19359;51.402;6.778;2023-05-10T06:05:43;349.27;;;260.92;;
7783;SDS011;19359;51.402;6.778;2023-05-10T06:08:12;316.05;;;247.00;;
7783;SDS011;19359;51.402;6.778;2023-05-10T06:10:40;325.27;;;247.65;;
7783;SDS011;19359;51.402;6.778;2023-05-10T06:13:07;329.13;;;250.43;;
7783;SDS011;19359;51.402;6.778;2023-05-10T06:15:35;347.33;;;260.10;;
7783;SDS011;19359;51.402;6.778;2023-05-10T06:18:02;369.40;;;267.40;;
7783;SDS011;19359;51.402;6.778;2023-05-10T06:20:30;358.40;;;258.75;;
7783;SDS011;19359;51.402;6.778;2023-05-10T06:22:58;342.73;;;253.38;;
7783;SDS011;19359;51.402;6.778;2023-05-10T06:25:27;333.45;;;244.40;;
7783;SDS011;19359;51.402;6.778;2023-05-10T06:27:54;353.55;;;254.52;;
7783;SDS011;19359;51.402;6.778;2023-05-10T06:30:22;390.70;;;273.02;;
7783;SDS011;19359;51.402;6.778;2023-05-10T06:32:52;385.20;;;270.50;;
7783;SDS011;19359;51.402;6.778;2023-05-10T06:35:20;387.88;;;275.60;;
7783;SDS011;19359;51.402;6.778;2023-05-10T06:37:47;433.98;;;298.73;;
7783;SDS011;19359;51.402;6.778;2023-05-10T06:40:17;428.70;;;283.70;;
7783;SDS011;19359;51.402;6.778;2023-05-10T06:42:46;438.67;;;289.40;;
7783;SDS011;19359;51.402;6.778;2023-05-10T06:45:14;410.05;;;280.15;;
7783;SDS011;19359;51.402;6.778;2023-05-10T06:47:43;413.67;;;287.15;;
7783;SDS011;19359;51.402;6.778;2023-05-10T06:50:10;404.52;;;285.13;;
7783;SDS011;19359;51.402;6.778;2023-05-10T06:52:38;438.65;;;300.75;;
7783;SDS011;19359;51.402;6.778;2023-05-10T06:55:05;453.10;;;306.10;;
7783;SDS011;19359;51.402;6.778;2023-05-10T06:57:33;444.20;;;305.60;;
7783;SDS011;19359;51.402;6.778;2023-05-10T07:00:02;445.55;;;309.13;;
7783;SDS011;19359;51.402;6.778;2023-05-10T07:02:31;433.73;;;300.50;;
7783;SDS011;19359;51.402;6.778;2023-05-10T07:04:58;407.30;;;299.33;;
7783;SDS011;19359;51.402;6.778;2023-05-10T07:07:26;429.63;;;302.73;;
7783;SDS011;19359;51.402;6.778;2023-05-10T07:09:53;428.95;;;300.48;;
7783;SDS011;19359;51.402;6.778;2023-05-10T07:12:21;418.17;;;290.55;;
7783;SDS011;19359;51.402;6.778;2023-05-10T07:14:49;415.52;;;292.77;;
7783;SDS011;19359;51.402;6.778;2023-05-10T07:17:18;398.88;;;280.77;;
7783;SDS011;19359;51.402;6.778;2023-05-10T07:19:45;436.92;;;290.20;;
7783;SDS011;19359;51.402;6.778;2023-05-10T07:22:15;398.35;;;276.92;;
7783;SDS011;19359;51.402;6.778;2023-05-10T07:24:43;424.52;;;282.52;;
7783;SDS011;19359;51.402;6.778;2023-05-10T07:27:10;415.38;;;279.02;;
7783;SDS011;19359;51.402;6.778;2023-05-10T07:29:41;405.23;;;277.90;;
7783;SDS011;19359;51.402;6.778;2023-05-10T07:32:12;436.05;;;289.52;;
7783;SDS011;19359;51.402;6.778;2023-05-10T07:34:41;449.38;;;296.52;;
7783;SDS011;19359;51.402;6.778;2023-05-10T07:37:09;437.65;;;303.60;;
7783;SDS011;19359;51.402;6.778;2023-05-10T07:39:37;427.92;;;289.25;;
7783;SDS011;19359;51.402;6.778;2023-05-10T07:42:04;449.92;;;297.27;;
7783;SDS011;19359;51.402;6.778;2023-05-10T07:44:32;414.73;;;290.48;;
7783;SDS011;19359;51.402;6.778;2023-05-10T07:47:00;410.80;;;284.30;;
7783;SDS011;19359;51.402;6.778;2023-05-10T07:49:29;438.48;;;297.15;;
7783;SDS011;19359;51.402;6.778;2023-05-10T07:52:02;447.42;;;303.67;;
7783;SDS011;19359;51.402;6.778;2023-05-10T07:54:43;436.17;;;312.95;;
7783;SDS011;19359;51.402;6.778;2023-05-10T07:57:16;431.50;;;315.92;;
7783;SDS011;19359;51.402;6.778;2023-05-10T07:59:45;332.92;;;277.85;;
7783;SDS011;19359;51.402;6.778;2023-05-10T08:02:14;368.63;;;299.48;;
7783;SDS011;19359;51.402;6.778;2023-05-10T08:04:48;341.88;;;289.42;;
7783;SDS011;19359;51.402;6.778;2023-05-10T08:07:20;370.48;;;303.00;;
7783;SDS011;19359;51.402;6.778;2023-05-10T08:09:54;374.52;;;305.75;;
7783;SDS011;19359;51.402;6.778;2023-05-10T08:12:22;360.30;;;305.23;;
7783;SDS011;19359;51.402;6.778;2023-05-10T08:15:03;384.63;;;316.38;;
7783;SDS011;19359;51.402;6.778;2023-05-10T08:17:35;422.85;;;336.38;;
7783;SDS011;19359;51.402;6.778;2023-05-10T08:20:16;434.05;;;343.08;;
7783;SDS011;19359;51.402;6.778;2023-05-10T08:25:45;374.40;;;303.85;;
7783;SDS011;19359;51.402;6.778;2023-05-10T08:28:14;396.25;;;320.95;;
7783;SDS011;19359;51.402;6.778;2023-05-10T08:30:49;430.25;;;339.55;;
7783;SDS011;19359;51.402;6.778;2023-05-10T08:33:17;396.42;;;318.73;;
7783;SDS011;19359;51.402;6.778;2023-05-10T08:35:46;366.58;;;313.02;;
7783;SDS011;19359;51.402;6.778;2023-05-10T08:38:14;388.25;;;320.00;;
7783;SDS011;19359;51.402;6.778;2023-05-10T08:40:43;387.58;;;319.75;;
7783;SDS011;19359;51.402;6.778;2023-05-10T08:43:13;347.15;;;300.02;;
7783;SDS011;19359;51.402;6.778;2023-05-10T08:45:42;318.02;;;283.42;;
7783;SDS011;19359;51.402;6.778;2023-05-10T08:48:13;312.15;;;278.70;;
7783;SDS011;19359;51.402;6.778;2023-05-10T08:50:41;332.38;;;296.25;;
7783;SDS011;19359;51.402;6.778;2023-05-10T08:53:12;332.83;;;292.50;;
7783;SDS011;19359;51.402;6.778;2023-05-10T08:55:43;302.02;;;270.63;;
7783;SDS011;19359;51.402;6.778;2023-05-10T08:58:20;336.92;;;299.60;;
7783;SDS011;19359;51.402;6.778;2023-05-10T09:00:51;321.38;;;286.65;;
7783;SDS011;19359;51.402;6.778;2023-05-10T09:03:23;312.55;;;278.65;;
7783;SDS011;19359;51.402;6.778;2023-05-10T09:06:11;325.40;;;283.95;;
7783;SDS011;19359;51.402;6.778;2023-05-10T09:08:59;298.52;;;267.80;;
7783;SDS011;19359;51.402;6.778;2023-05-10T09:11:49;272.58;;;244.10;;
7783;SDS011;19359;51.402;6.778;2023-05-10T09:14:17;272.27;;;244.95;;
7783;SDS011;19359;51.402;6.778;2023-05-10T09:16:45;274.48;;;245.95;;
7783;SDS011;19359;51.402;6.778;2023-05-10T09:19:12;288.23;;;257.58;;
7783;SDS011;19359;51.402;6.778;2023-05-10T09:21:39;287.10;;;257.40;;
7783;SDS011;19359;51.402;6.778;2023-05-10T09:24:06;280.52;;;252.10;;
7783;SDS011;19359;51.402;6.778;2023-05-10T09:26:34;285.17;;;256.98;;
7783;SDS011;19359;51.402;6.778;2023-05-10T09:29:02;268.75;;;241.80;;
7783;SDS011;19359;51.402;6.778;2023-05-10T09:31:47;291.40;;;261.40;;
7783;SDS011;19359;51.402;6.778;2023-05-10T09:34:16;263.42;;;238.80;;
7783;SDS011;19359;51.402;6.778;2023-05-10T09:36:53;239.82;;;215.05;;
7783;SDS011;19359;51.402;6.778;2023-05-10T09:39:29;237.05;;;214.15;;
7783;SDS011;19359;51.402;6.778;2023-05-10T09:41:57;242.05;;;216.63;;
7783;SDS011;19359;51.402;6.778;2023-05-10T09:44:25;240.25;;;217.57;;
7783;SDS011;19359;51.402;6.778;2023-05-10T09:46:53;253.07;;;227.48;;
7783;SDS011;19359;51.402;6.778;2023-05-10T09:49:20;224.85;;;203.90;;
7783;SDS011;19359;51.402;6.778;2023-05-10T09:51:54;239.70;;;215.35;;
7783;SDS011;19359;51.402;6.778;2023-05-10T09:54:28;216.82;;;197.18;;
7783;SDS011;19359;51.402;6.778;2023-05-10T09:56:55;239.18;;;215.50;;
7783;SDS011;19359;51.402;6.778;2023-05-10T09:59:22;224.57;;;204.50;;
7783;SDS011;19359;51.402;6.778;2023-05-10T10:01:51;166.05;;;151.15;;
7783;SDS011;19359;51.402;6.778;2023-05-10T10:04:20;187.80;;;171.55;;
7783;SDS011;19359;51.402;6.778;2023-05-10T10:06:47;198.73;;;181.40;;
7783;SDS011;19359;51.402;6.778;2023-05-10T10:09:25;222.82;;;201.43;;
7783;SDS011;19359;51.402;6.778;2023-05-10T10:11:52;204.38;;;186.35;;
7783;SDS011;19359;51.402;6.778;2023-05-10T10:14:19;242.25;;;218.27;;
7783;SDS011;19359;51.402;6.778;2023-05-10T10:16:46;185.20;;;165.73;;
7783;SDS011;19359;51.402;6.778;2023-05-10T10:19:14;196.25;;;176.10;;
7783;SDS011;19359;51.402;6.778;2023-05-10T10:21:42;212.30;;;192.00;;
7783;SDS011;19359;51.402;6.778;2023-05-10T10:24:10;250.57;;;224.40;;
7783;SDS011;19359;51.402;6.778;2023-05-10T10:26:37;236.80;;;212.57;;
7783;SDS011;19359;51.402;6.778;2023-05-10T10:29:08;229.30;;;206.63;;
7783;SDS011;19359;51.402;6.778;2023-05-10T10:31:39;194.27;;;176.68;;
7783;SDS011;19359;51.402;6.778;2023-05-10T10:34:08;207.45;;;187.60;;
7783;SDS011;19359;51.402;6.778;2023-05-10T10:36:44;213.55;;;191.52;;
7783;SDS011;19359;51.402;6.778;2023-05-10T10:39:12;233.07;;;208.98;;
7783;SDS011;19359;51.402;6.778;2023-05-10T10:41:48;251.30;;;224.32;;
7783;SDS011;19359;51.402;6.778;2023-05-10T10:44:25;253.85;;;227.80;;
7783;SDS011;19359;51.402;6.778;2023-05-10T10:47:22;249.75;;;225.75;;
7783;SDS011;19359;51.402;6.778;2023-05-10T10:49:50;234.73;;;213.20;;
7783;SDS011;19359;51.402;6.778;2023-05-10T10:52:25;263.92;;;238.77;;
7783;SDS011;19359;51.402;6.778;2023-05-10T10:54:58;269.05;;;242.15;;
7783;SDS011;19359;51.402;6.778;2023-05-10T10:57:26;231.63;;;210.10;;
7783;SDS011;19359;51.402;6.778;2023-05-10T11:02:42;244.73;;;221.07;;
7783;SDS011;19359;51.402;6.778;2023-05-10T11:05:26;225.55;;;204.15;;
7783;SDS011;19359;51.402;6.778;2023-05-10T11:08:06;219.55;;;196.45;;
7783;SDS011;19359;51.402;6.778;2023-05-10T11:10:33;237.23;;;214.35;;
7783;SDS011;19359;51.402;6.778;2023-05-10T11:13:01;220.63;;;199.23;;
7783;SDS011;19359;51.402;6.778;2023-05-10T11:15:29;222.10;;;200.93;;
7783;SDS011;19359;51.402;6.778;2023-05-10T11:17:56;219.00;;;198.52;;
7783;SDS011;19359;51.402;6.778;2023-05-10T11:20:23;238.23;;;214.38;;
7783;SDS011;19359;51.402;6.778;2023-05-10T11:22:58;228.02;;;207.23;;
7783;SDS011;19359;51.402;6.778;2023-05-10T11:25:41;268.80;;;241.52;;
7783;SDS011;19359;51.402;6.778;2023-05-10T11:28:10;250.27;;;227.13;;
7783;SDS011;19359;51.402;6.778;2023-05-10T11:30:37;299.40;;;269.48;;
7783;SDS011;19359;51.402;6.778;2023-05-10T11:33:05;307.60;;;278.25;;
7783;SDS011;19359;51.402;6.778;2023-05-10T11:35:36;288.13;;;260.17;;
7783;SDS011;19359;51.402;6.778;2023-05-10T11:38:05;290.15;;;262.35;;
7783;SDS011;19359;51.402;6.778;2023-05-10T11:40:32;287.73;;;261.13;;
7783;SDS011;19359;51.402;6.778;2023-05-10T11:43:01;284.63;;;257.40;;
7783;SDS011;19359;51.402;6.778;2023-05-10T11:45:28;278.55;;;252.27;;
7783;SDS011;19359;51.402;6.778;2023-05-10T11:47:56;288.40;;;262.55;;
7783;SDS011;19359;51.402;6.778;2023-05-10T11:50:23;284.05;;;258.60;;
7783;SDS011;19359;51.402;6.778;2023-05-10T11:52:51;262.90;;;239.38;;
7783;SDS011;19359;51.402;6.778;2023-05-10T11:55:18;274.88;;;249.93;;
7783;SDS011;19359;51.402;6.778;2023-05-10T11:57:45;250.80;;;228.77;;
7783;SDS011;19359;51.402;6.778;2023-05-10T12:00:14;250.95;;;228.70;;
7783;SDS011;19359;51.402;6.778;2023-05-10T12:02:41;261.88;;;238.02;;
7783;SDS011;19359;51.402;6.778;2023-05-10T12:05:08;251.05;;;229.82;;
7783;SDS011;19359;51.402;6.778;2023-05-10T12:07:36;266.95;;;243.18;;
7783;SDS011;19359;51.402;6.778;2023-05-10T12:10:04;221.43;;;202.95;;
7783;SDS011;19359;51.402;6.778;2023-05-10T12:12:35;267.25;;;243.40;;
7783;SDS011;19359;51.402;6.778;2023-05-10T12:15:10;257.38;;;234.98;;
7783;SDS011;19359;51.402;6.778;2023-05-10T12:17:38;246.95;;;225.40;;
7783;SDS011;19359;51.402;6.778;2023-05-10T12:20:15;228.35;;;209.45;;
7783;SDS011;19359;51.402;6.778;2023-05-10T12:22:44;228.95;;;210.82;;
7783;SDS011;19359;51.402;6.778;2023-05-10T12:25:11;252.10;;;230.88;;
7783;SDS011;19359;51.402;6.778;2023-05-10T12:27:38;249.90;;;229.10;;
7783;SDS011;19359;51.402;6.778;2023-05-10T12:30:06;300.80;;;274.33;;
7783;SDS011;19359;51.402;6.778;2023-05-10T12:32:41;304.80;;;278.33;;
7783;SDS011;19359;51.402;6.778;2023-05-10T12:35:08;321.60;;;292.67;;
7783;SDS011;19359;51.402;6.778;2023-05-10T12:37:36;332.02;;;303.40;;
7783;SDS011;19359;51.402;6.778;2023-05-10T12:40:07;329.35;;;301.88;;
7783;SDS011;19359;51.402;6.778;2023-05-10T12:42:36;267.08;;;247.05;;
7783;SDS011;19359;51.402;6.778;2023-05-10T12:45:03;299.08;;;274.98;;
7783;SDS011;19359;51.402;6.778;2023-05-10T12:47:31;274.67;;;254.35;;
7783;SDS011;19359;51.402;6.778;2023-05-10T12:50:00;296.83;;;271.92;;
7783;SDS011;19359;51.402;6.778;2023-05-10T12:52:28;279.67;;;258.75;;
7783;SDS011;19359;51.402;6.778;2023-05-10T12:54:57;251.73;;;234.48;;
7783;SDS011;19359;51.402;6.778;2023-05-10T12:57:23;251.63;;;234.68;;
7783;SDS011;19359;51.402;6.778;2023-05-10T12:59:50;366.90;;;337.05;;
7783;SDS011;19359;51.402;6.778;2023-05-10T13:02:17;342.88;;;316.35;;
7783;SDS011;19359;51.402;6.778;2023-05-10T13:04:45;343.05;;;317.98;;
7783;SDS011;19359;51.402;6.778;2023-05-10T13:07:13;309.40;;;288.02;;
7783;SDS011;19359;51.402;6.778;2023-05-10T13:09:40;311.15;;;289.67;;
7783;SDS011;19359;51.402;6.778;2023-05-10T13:12:07;320.17;;;297.35;;
7783;SDS011;19359;51.402;6.778;2023-05-10T13:14:33;424.73;;;391.25;;
7783;SDS011;19359;51.402;6.778;2023-05-10T13:17:00;353.02;;;326.77;;
7783;SDS011;19359;51.402;6.778;2023-05-10T13:19:28;326.23;;;302.33;;
7783;SDS011;19359;51.402;6.778;2023-05-10T13:21:54;284.90;;;265.33;;
7783;SDS011;19359;51.402;6.778;2023-05-10T13:24:23;299.77;;;278.25;;
7783;SDS011;19359;51.402;6.778;2023-05-10T13:26:50;273.05;;;254.93;;
7783;SDS011;19359;51.402;6.778;2023-05-10T13:29:17;307.15;;;285.05;;
7783;SDS011;19359;51.402;6.778;2023-05-10T13:31:44;275.55;;;255.45;;
7783;SDS011;19359;51.402;6.778;2023-05-10T13:34:11;288.67;;;269.05;;
7783;SDS011;19359;51.402;6.778;2023-05-10T13:36:38;315.15;;;292.65;;
7783;SDS011;19359;51.402;6.778;2023-05-10T13:39:06;323.27;;;300.20;;
7783;SDS011;19359;51.402;6.778;2023-05-10T13:41:34;331.08;;;307.33;;
7783;SDS011;19359;51.402;6.778;2023-05-10T13:44:01;351.48;;;325.85;;
7783;SDS011;19359;51.402;6.778;2023-05-10T13:46:28;389.23;;;358.55;;
7783;SDS011;19359;51.402;6.778;2023-05-10T13:48:56;451.13;;;412.50;;
7783;SDS011;19359;51.402;6.778;2023-05-10T13:51:25;362.98;;;336.67;;
7783;SDS011;19359;51.402;6.778;2023-05-10T13:53:52;366.48;;;341.08;;
7783;SDS011;19359;51.402;6.778;2023-05-10T13:56:20;444.05;;;410.40;;
7783;SDS011;19359;51.402;6.778;2023-05-10T13:58:48;434.40;;;402.38;;
7783;SDS011;19359;51.402;6.778;2023-05-10T14:01:15;475.23;;;438.17;;
7783;SDS011;19359;51.402;6.778;2023-05-10T14:03:42;430.33;;;396.30;;
7783;SDS011;19359;51.402;6.778;2023-05-10T14:06:09;397.92;;;369.92;;
7783;SDS011;19359;51.402;6.778;2023-05-10T14:08:36;385.65;;;358.15;;
7783;SDS011;19359;51.402;6.778;2023-05-10T14:11:03;366.45;;;341.05;;
7783;SDS011;19359;51.402;6.778;2023-05-10T14:13:30;438.90;;;405.73;;
7783;SDS011;19359;51.402;6.778;2023-05-10T14:15:59;459.95;;;425.00;;
7783;SDS011;19359;51.402;6.778;2023-05-10T14:18:26;440.02;;;407.38;;
7783;SDS011;19359;51.402;6.778;2023-05-10T14:20:53;434.77;;;404.02;;
7783;SDS011;19359;51.402;6.778;2023-05-10T14:23:21;445.83;;;412.63;;
7783;SDS011;19359;51.402;6.778;2023-05-10T14:25:49;446.10;;;414.00;;
7783;SDS011;19359;51.402;6.778;2023-05-10T14:28:16;440.83;;;408.55;;